createdAt,value
2018-09-06T00:00:38.112Z,23.47
2018-09-06T00:03:06.480Z,23.37
2018-09-06T00:05:34.982Z,23.43
2018-09-06T00:08:03.610Z,23.66
2018-09-06T00:10:31.918Z,23.35
2018-09-06T00:13:00.328Z,23.59
2018-09-06T00:15:28.700Z,23.49
2018-09-06T00:17:57.119Z,23.41
2018-09-06T00:20:25.474Z,23.65
2018-09-06T00:22:53.929Z,23.30
2018-09-06T00:25:22.333Z,22.91
2018-09-06T00:27:50.756Z,23.52
2018-09-06T00:30:19.157Z,23.62
2018-09-06T00:32:47.593Z,23.48
2018-09-06T00:35:16.023Z,23.98
2018-09-06T00:37:44.440Z,24.00
2018-09-06T00:40:13.000Z,24.24
2018-09-06T00:42:41.868Z,24.12
2018-09-06T00:45:10.313Z,23.66
2018-09-06T00:47:38.765Z,23.82
2018-09-06T00:50:13.891Z,24.29
2018-09-06T00:52:42.263Z,23.40
2018-09-06T00:55:10.642Z,23.24
2018-09-06T00:57:38.967Z,23.70
2018-09-06T01:00:07.447Z,23.96
2018-09-06T01:02:35.820Z,24.19
2018-09-06T01:05:04.182Z,23.97
2018-09-06T01:07:32.559Z,23.61
2018-09-06T01:10:00.950Z,23.96
2018-09-06T01:12:29.534Z,23.80
2018-09-06T01:14:57.939Z,23.85
2018-09-06T01:17:26.305Z,24.37
2018-09-06T01:19:54.642Z,24.16
2018-09-06T01:22:22.996Z,24.38
2018-09-06T01:24:51.348Z,23.67
2018-09-06T01:27:19.666Z,23.49
2018-09-06T01:29:48.022Z,24.14
2018-09-06T01:32:16.399Z,23.57
2018-09-06T01:34:44.750Z,23.51
2018-09-06T01:37:13.251Z,24.47
2018-09-06T01:39:41.707Z,24.02
2018-09-06T01:42:10.109Z,24.08
2018-09-06T01:44:38.477Z,24.54
2018-09-06T01:47:06.938Z,24.05
2018-09-06T01:49:35.360Z,24.65
2018-09-06T01:52:03.772Z,24.39
2018-09-06T01:54:32.147Z,24.47
2018-09-06T01:57:07.023Z,24.24
2018-09-06T01:59:36.767Z,23.76
2018-09-06T02:02:05.166Z,24.48
2018-09-06T02:04:33.467Z,24.20
2018-09-06T02:07:01.842Z,24.22
2018-09-06T02:09:30.106Z,24.09
2018-09-06T02:11:58.372Z,23.42
2018-09-06T02:14:26.741Z,23.90
2018-09-06T02:16:55.072Z,24.18
2018-09-06T02:19:23.502Z,24.16
2018-09-06T02:21:51.866Z,23.40
2018-09-06T02:24:20.361Z,24.31
2018-09-06T02:26:49.048Z,24.24
2018-09-06T02:29:17.458Z,24.33
2018-09-06T02:31:45.858Z,24.02
2018-09-06T02:34:14.304Z,23.78
2018-09-06T02:36:42.694Z,24.54
2018-09-06T02:39:11.686Z,24.02
2018-09-06T02:41:40.058Z,23.59
2018-09-06T02:44:08.994Z,23.89
2018-09-06T02:46:37.535Z,24.51
2018-09-06T02:49:05.979Z,24.00
2018-09-06T02:51:34.335Z,24.15
2018-09-06T02:54:02.741Z,24.81
2018-09-06T02:56:30.978Z,24.72
2018-09-06T02:58:59.290Z,24.69
2018-09-06T03:01:27.688Z,24.58
2018-09-06T03:03:56.004Z,24.17
2018-09-06T03:06:24.403Z,24.77
2018-09-06T03:08:52.768Z,24.86
2018-09-06T03:11:26.215Z,24.86
2018-09-06T03:13:54.502Z,24.74
2018-09-06T03:16:22.932Z,24.87
2018-09-06T03:18:51.205Z,24.28
2018-09-06T03:21:19.991Z,25.79
2018-09-06T03:23:48.250Z,25.75
2018-09-06T03:26:17.107Z,25.55
2018-09-06T03:28:46.082Z,25.44
2018-09-06T03:31:14.983Z,25.19
2018-09-06T03:33:43.454Z,25.51
2018-09-06T03:36:11.875Z,25.44
2018-09-06T03:38:40.190Z,26.00
2018-09-06T03:41:08.487Z,26.09
2018-09-06T03:43:36.739Z,25.51
2018-09-06T03:46:06.404Z,26.14
2018-09-06T03:48:34.667Z,26.27
2018-09-06T03:51:03.063Z,25.58
2018-09-06T03:53:31.320Z,25.90
2018-09-06T03:55:59.570Z,26.05
2018-09-06T03:58:27.842Z,25.37
2018-09-06T04:00:56.103Z,25.71
2018-09-06T04:03:24.393Z,25.65
2018-09-06T04:05:52.639Z,26.23
2018-09-06T04:08:20.939Z,25.98
2018-09-06T04:10:49.203Z,25.79
2018-09-06T04:13:17.475Z,26.32
2018-09-06T04:15:45.760Z,26.29
2018-09-06T04:18:14.167Z,26.41
2018-09-06T04:20:42.445Z,25.55
2018-09-06T04:23:10.702Z,26.38
2018-09-06T04:25:38.970Z,26.44
2018-09-06T04:28:07.228Z,25.96
2018-09-06T04:30:35.488Z,26.29
2018-09-06T04:33:03.738Z,21.46
2018-09-06T04:35:32.076Z,19.68
2018-09-06T04:38:00.283Z,19.12
2018-09-06T04:40:28.550Z,19.11
2018-09-06T04:42:57.875Z,18.91
2018-09-06T04:45:26.169Z,19.13
2018-09-06T04:47:54.496Z,19.20
2018-09-06T04:50:22.757Z,19.10
2018-09-06T04:52:51.092Z,19.29
2018-09-06T04:55:19.470Z,19.29
2018-09-06T04:57:47.734Z,19.20
2018-09-06T05:00:16.178Z,19.32
2018-09-06T05:02:44.528Z,19.26
2018-09-06T05:05:12.846Z,19.42
2018-09-06T05:07:41.195Z,19.62
2018-09-06T05:10:09.490Z,19.57
2018-09-06T05:12:37.796Z,20.44
2018-09-06T05:15:06.107Z,20.86
2018-09-06T05:17:34.387Z,20.65
2018-09-06T05:20:02.781Z,20.73
2018-09-06T05:22:31.140Z,20.87
2018-09-06T05:24:59.424Z,20.99
2018-09-06T05:27:27.906Z,21.06
2018-09-06T05:29:56.247Z,20.89
2018-09-06T05:32:24.647Z,21.12
2018-09-06T05:34:52.947Z,21.13
2018-09-06T05:37:21.267Z,20.88
2018-09-06T05:39:49.587Z,20.79
2018-09-06T05:42:18.028Z,20.52
2018-09-06T05:44:46.322Z,20.49
2018-09-06T05:47:14.635Z,20.72
2018-09-06T05:49:42.899Z,21.03
2018-09-06T05:52:11.183Z,19.92
2018-09-06T05:54:39.454Z,20.10
2018-09-06T05:57:07.723Z,21.01
2018-09-06T05:59:36.052Z,21.02
2018-09-06T06:02:04.283Z,21.61
2018-09-06T06:04:32.537Z,21.74
2018-09-06T06:07:00.880Z,21.64
2018-09-06T06:09:29.139Z,21.97
2018-09-06T06:11:57.554Z,21.96
2018-09-06T06:14:26.001Z,22.26
2018-09-06T06:16:54.264Z,22.33
2018-09-06T06:19:22.544Z,22.21
2018-09-06T06:21:50.821Z,22.52
2018-09-06T06:24:19.154Z,22.81
2018-09-06T06:26:47.523Z,22.89
2018-09-06T06:29:15.863Z,23.34
2018-09-06T06:31:44.139Z,23.40
2018-09-06T06:34:12.400Z,23.37
2018-09-06T06:36:40.686Z,23.57
2018-09-06T06:39:10.435Z,23.43
2018-09-06T06:41:38.879Z,23.48
2018-09-06T06:44:07.147Z,23.66
2018-09-06T06:46:35.461Z,23.51
2018-09-06T06:49:05.125Z,23.16
2018-09-06T06:51:33.439Z,23.40
2018-09-06T06:54:01.698Z,23.23
2018-09-06T06:56:30.125Z,23.31
2018-09-06T06:58:58.432Z,23.55
2018-09-06T07:01:26.721Z,23.53
2018-09-06T07:03:54.998Z,23.45
2018-09-06T07:06:23.337Z,23.68
2018-09-06T07:08:51.659Z,23.68
2018-09-06T07:11:19.976Z,23.81
2018-09-06T07:13:48.255Z,24.01
2018-09-06T07:16:16.553Z,23.92
2018-09-06T07:18:44.867Z,24.30
2018-09-06T07:21:13.068Z,24.16
2018-09-06T07:23:41.360Z,24.16
2018-09-06T07:26:09.634Z,23.99
2018-09-06T07:28:37.923Z,23.64
2018-09-06T07:31:06.241Z,23.68
2018-09-06T07:33:34.547Z,23.02
2018-09-06T07:36:02.843Z,23.72
2018-09-06T07:38:31.228Z,23.36
2018-09-06T07:40:59.514Z,23.98
2018-09-06T07:43:27.821Z,23.70
2018-09-06T07:45:56.110Z,24.02
2018-09-06T07:48:24.396Z,24.45
2018-09-06T07:50:52.685Z,24.80
2018-09-06T07:53:20.989Z,24.66
2018-09-06T07:55:49.306Z,24.66
2018-09-06T07:58:17.566Z,24.89
2018-09-06T08:00:45.843Z,24.57
2018-09-06T08:03:14.173Z,24.95
2018-09-06T08:05:42.999Z,25.26
2018-09-06T08:08:11.416Z,26.27
2018-09-06T08:10:39.718Z,27.93
2018-09-06T08:13:08.022Z,28.34
2018-09-06T08:15:36.318Z,28.20
2018-09-06T08:18:04.832Z,28.32
2018-09-06T08:20:33.091Z,28.34
2018-09-06T08:23:01.624Z,27.94
2018-09-06T08:25:30.008Z,29.08
2018-09-06T08:27:58.315Z,28.39
2018-09-06T08:30:26.605Z,29.39
2018-09-06T08:32:54.851Z,29.90
2018-09-06T08:35:23.123Z,30.86
2018-09-06T08:37:51.406Z,29.26
2018-09-06T08:40:19.671Z,28.92
2018-09-06T08:42:48.036Z,28.78
2018-09-06T08:45:17.323Z,28.96
2018-09-06T08:47:45.622Z,29.87
2018-09-06T08:50:13.858Z,29.31
2018-09-06T08:52:42.155Z,30.12
2018-09-06T08:55:10.426Z,28.89
2018-09-06T08:57:38.699Z,28.78
2018-09-06T09:00:07.000Z,28.75
2018-09-06T09:02:35.400Z,28.04
2018-09-06T09:05:03.635Z,27.82
2018-09-06T09:07:31.933Z,27.27
2018-09-06T09:10:00.215Z,27.66
2018-09-06T09:12:28.525Z,27.84
2018-09-06T09:14:56.733Z,28.46
2018-09-06T09:17:25.008Z,28.89
2018-09-06T09:19:53.297Z,29.39
2018-09-06T09:22:21.579Z,30.44
2018-09-06T09:24:49.818Z,29.76
2018-09-06T09:27:18.065Z,29.91
2018-09-06T09:29:46.372Z,29.88
2018-09-06T09:32:14.643Z,30.62
2018-09-06T09:34:42.928Z,29.42
2018-09-06T09:37:11.258Z,29.27
2018-09-06T09:39:39.528Z,30.21
2018-09-06T09:42:07.816Z,30.35
2018-09-06T09:44:36.074Z,30.94
2018-09-06T09:49:31.844Z,31.43
2018-09-06T09:52:00.055Z,31.65
2018-09-06T09:54:28.405Z,32.09
2018-09-06T09:56:57.754Z,31.67
2018-09-06T09:59:26.063Z,32.11
2018-09-06T10:01:59.610Z,32.26
2018-09-06T10:04:33.109Z,31.68
2018-09-06T10:07:06.642Z,31.54
2018-09-06T10:09:34.928Z,31.19
2018-09-06T10:12:03.283Z,31.46
2018-09-06T10:14:31.655Z,30.52
2018-09-06T10:16:59.981Z,30.29
2018-09-06T10:19:28.282Z,30.21
2018-09-06T10:21:56.586Z,29.75
2018-09-06T10:24:24.877Z,29.95
2018-09-06T10:26:53.291Z,29.81
2018-09-06T10:29:21.649Z,29.80
2018-09-06T10:31:49.992Z,30.37
2018-09-06T10:34:18.316Z,29.28
2018-09-06T10:36:46.651Z,29.12
2018-09-06T10:39:15.062Z,28.61
2018-09-06T10:41:43.351Z,29.30
2018-09-06T10:44:11.638Z,28.53
2018-09-06T10:46:39.952Z,28.57
2018-09-06T10:49:08.223Z,29.09
2018-09-06T10:51:36.514Z,28.32
2018-09-06T10:54:04.846Z,28.71
2018-09-06T10:56:33.474Z,28.00
2018-09-06T10:59:01.776Z,28.58
2018-09-06T11:01:30.103Z,28.28
2018-09-06T11:03:58.763Z,27.95
2018-09-06T11:06:27.047Z,27.33
2018-09-06T11:08:55.338Z,27.60
2018-09-06T11:11:23.661Z,27.45
2018-09-06T11:13:52.028Z,27.37
2018-09-06T11:16:20.796Z,27.56
2018-09-06T11:18:49.100Z,26.99
2018-09-06T11:21:17.546Z,26.74
2018-09-06T11:23:45.768Z,25.89
2018-09-06T11:26:14.110Z,25.76
2018-09-06T11:28:42.627Z,25.63
2018-09-06T11:31:11.048Z,25.71
2018-09-06T11:33:39.481Z,24.93
2018-09-06T11:36:07.918Z,24.80
2018-09-06T11:38:44.418Z,24.61
2018-09-06T11:41:12.738Z,24.01
2018-09-06T11:43:41.050Z,23.36
2018-09-06T11:46:09.405Z,23.26
2018-09-06T11:48:37.661Z,22.64
2018-09-06T11:51:06.563Z,22.18
2018-09-06T11:53:34.832Z,21.94
2018-09-06T11:56:03.113Z,21.81
2018-09-06T11:58:31.368Z,21.98
2018-09-06T12:00:59.653Z,21.80
2018-09-06T12:03:27.918Z,22.02
2018-09-06T12:05:56.178Z,22.06
2018-09-06T12:08:24.466Z,21.91
2018-09-06T12:10:52.766Z,21.74
2018-09-06T12:13:21.057Z,21.74
2018-09-06T12:15:49.319Z,21.91
2018-09-06T12:18:17.568Z,22.09
2018-09-06T12:20:45.815Z,21.85
2018-09-06T12:23:14.082Z,21.64
2018-09-06T12:25:42.436Z,21.49
2018-09-06T12:28:10.656Z,21.19
2018-09-06T12:30:39.024Z,21.23
2018-09-06T12:33:07.305Z,20.93
2018-09-06T12:35:35.605Z,20.77
2018-09-06T12:38:03.917Z,21.30
2018-09-06T12:40:32.229Z,20.96
2018-09-06T12:43:00.550Z,20.98
2018-09-06T12:45:28.860Z,21.18
2018-09-06T12:47:57.154Z,21.75
2018-09-06T12:50:25.486Z,21.95
2018-09-06T12:52:53.784Z,21.88
2018-09-06T12:55:22.223Z,21.99
2018-09-06T12:57:50.489Z,21.98
2018-09-06T13:00:18.749Z,21.85
2018-09-06T13:02:46.998Z,21.31
2018-09-06T13:05:15.281Z,20.83
2018-09-06T13:07:43.588Z,20.95
2018-09-06T13:10:11.863Z,20.96
2018-09-06T13:12:40.211Z,20.67
2018-09-06T13:15:08.575Z,19.97
2018-09-06T13:17:37.045Z,20.25
2018-09-06T13:20:06.120Z,20.18
2018-09-06T13:22:34.546Z,20.50
2018-09-06T13:25:02.949Z,20.34
2018-09-06T13:27:31.556Z,20.56
2018-09-06T13:29:59.892Z,20.34
2018-09-06T13:32:28.435Z,20.49
2018-09-06T13:34:56.940Z,20.67
2018-09-06T13:37:25.352Z,20.80
2018-09-06T13:39:53.923Z,20.77
2018-09-06T13:42:22.413Z,21.18
2018-09-06T13:44:50.813Z,20.95
2018-09-06T13:47:19.385Z,20.80
2018-09-06T13:49:47.795Z,20.95
2018-09-06T13:52:16.318Z,21.10
2018-09-06T13:54:44.679Z,21.08
2018-09-06T13:57:13.053Z,21.40
2018-09-06T13:59:41.504Z,21.18
2018-09-06T14:02:10.027Z,21.55
2018-09-06T14:04:38.705Z,21.35
2018-09-06T14:07:07.048Z,21.42
2018-09-06T14:09:35.462Z,21.42
2018-09-06T14:12:04.575Z,21.54
2018-09-06T14:14:33.111Z,20.87
2018-09-06T14:17:01.736Z,21.32
2018-09-06T14:19:30.124Z,21.49
2018-09-06T14:21:58.522Z,21.74
2018-09-06T14:24:26.894Z,21.68
2018-09-06T14:26:55.279Z,21.46
2018-09-06T14:29:23.733Z,21.86
2018-09-06T14:31:52.131Z,22.08
2018-09-06T14:34:20.498Z,22.29
2018-09-06T14:36:48.894Z,22.40
2018-09-06T14:39:17.255Z,22.70
2018-09-06T14:41:45.572Z,22.97
2018-09-06T14:44:13.971Z,22.67
2018-09-06T14:46:42.314Z,23.48
2018-09-06T14:49:10.682Z,23.32
2018-09-06T14:51:39.091Z,22.69
2018-09-06T14:54:07.478Z,23.19
2018-09-06T14:56:35.939Z,23.27
2018-09-06T14:59:04.347Z,23.15
2018-09-06T15:01:32.865Z,22.82
2018-09-06T15:04:01.140Z,22.61
2018-09-06T15:06:29.618Z,22.53
2018-09-06T15:08:57.999Z,22.64
2018-09-06T15:11:26.398Z,22.44
2018-09-06T15:13:54.801Z,22.24
2018-09-06T15:16:23.147Z,22.59
2018-09-06T15:18:51.692Z,22.37
2018-09-06T15:21:20.112Z,23.15
2018-09-06T15:23:48.527Z,23.12
2018-09-06T15:26:16.938Z,22.05
2018-09-06T15:28:45.778Z,22.40
2018-09-06T15:31:14.290Z,21.77
2018-09-06T15:33:42.728Z,21.91
2018-09-06T15:36:11.168Z,21.31
2018-09-06T15:38:39.550Z,21.38
2018-09-06T15:41:07.936Z,21.27
2018-09-06T15:43:36.459Z,21.66
2018-09-06T15:46:04.887Z,21.31
2018-09-06T15:48:33.278Z,21.53
2018-09-06T15:51:01.620Z,21.20
2018-09-06T15:53:30.086Z,21.79
2018-09-06T15:55:58.640Z,21.60
2018-09-06T15:58:27.217Z,21.84
2018-09-06T16:00:55.634Z,21.80
2018-09-06T16:03:24.090Z,21.63
2018-09-06T16:05:52.528Z,21.92
2018-09-06T16:08:20.932Z,22.09
2018-09-06T16:10:49.974Z,22.15
2018-09-06T16:13:18.405Z,21.92
2018-09-06T16:15:46.825Z,21.92
2018-09-06T16:18:15.224Z,21.72
2018-09-06T16:20:43.630Z,21.98
2018-09-06T16:23:11.995Z,22.06
2018-09-06T16:25:40.382Z,22.27
2018-09-06T16:28:09.130Z,22.24
2018-09-06T16:30:37.529Z,22.17
2018-09-06T16:33:06.067Z,22.02
2018-09-06T16:35:34.885Z,22.05
2018-09-06T16:38:03.371Z,22.03
2018-09-06T16:40:31.767Z,21.97
2018-09-06T16:43:00.170Z,22.38
2018-09-06T16:45:28.577Z,22.32
2018-09-06T16:47:56.996Z,21.98
2018-09-06T16:50:25.536Z,21.94
2018-09-06T16:52:53.844Z,21.96
2018-09-06T16:55:22.244Z,21.75
2018-09-06T16:57:50.669Z,22.03
2018-09-06T17:00:19.022Z,21.39
2018-09-06T17:02:47.433Z,21.54
2018-09-06T17:05:15.810Z,21.47
2018-09-06T17:07:44.242Z,21.59
2018-09-06T17:10:12.712Z,21.50
2018-09-06T17:12:41.121Z,21.72
2018-09-06T17:15:09.560Z,21.64
2018-09-06T17:17:37.919Z,21.05
2018-09-06T17:20:07.096Z,21.37
2018-09-06T17:22:35.435Z,21.18
2018-09-06T17:25:05.281Z,21.04
2018-09-06T17:27:33.940Z,21.15
2018-09-06T17:30:02.572Z,21.48
2018-09-06T17:32:31.899Z,20.96
2018-09-06T17:35:01.650Z,21.10
2018-09-06T17:37:29.947Z,20.90
2018-09-06T17:39:58.298Z,21.06
2018-09-06T17:42:27.427Z,20.99
2018-09-06T17:44:55.714Z,21.12
2018-09-06T17:47:23.998Z,20.92
2018-09-06T17:49:52.295Z,20.88
2018-09-06T17:52:20.822Z,20.71
2018-09-06T17:54:49.379Z,20.50
2018-09-06T17:57:18.020Z,20.48
2018-09-06T17:59:46.486Z,20.80
2018-09-06T18:02:14.920Z,20.62
2018-09-06T18:04:43.252Z,20.71
2018-09-06T18:07:11.597Z,20.24
2018-09-06T18:12:16.836Z,20.99
2018-09-06T18:14:45.775Z,20.82
2018-09-06T18:17:14.193Z,20.55
2018-09-06T18:19:42.690Z,20.68
2018-09-06T18:22:11.055Z,20.74
2018-09-06T18:24:39.628Z,20.66
2018-09-06T18:27:07.964Z,20.82
2018-09-06T18:29:36.210Z,20.48
2018-09-06T18:32:04.463Z,20.42
2018-09-06T18:34:32.807Z,20.59
2018-09-06T18:37:01.071Z,20.48
2018-09-06T18:39:29.913Z,20.31
2018-09-06T18:41:58.345Z,20.24
2018-09-06T18:44:26.815Z,19.87
2018-09-06T18:46:56.106Z,19.77
2018-09-06T18:49:24.775Z,20.02
2018-09-06T18:51:53.191Z,20.30
2018-09-06T18:54:21.619Z,20.19
2018-09-06T18:56:51.233Z,20.10
2018-09-06T18:59:21.246Z,20.23
2018-09-06T19:01:50.036Z,20.08
2018-09-06T19:04:19.090Z,20.39
2018-09-06T19:09:27.969Z,20.30
2018-09-06T19:11:57.167Z,20.18
2018-09-06T19:14:26.714Z,20.44
2018-09-06T19:16:56.011Z,19.90
2018-09-06T19:19:24.430Z,20.06
2018-09-06T19:21:57.275Z,20.39
2018-09-06T19:24:26.498Z,20.06
2018-09-06T19:26:55.032Z,20.18
2018-09-06T19:29:24.529Z,20.08
2018-09-06T19:31:53.011Z,20.13
2018-09-06T19:34:21.417Z,20.24
2018-09-06T19:36:49.898Z,19.93
2018-09-06T19:39:18.354Z,20.07
2018-09-06T19:41:46.955Z,20.05
2018-09-06T19:44:15.436Z,20.11
2018-09-06T19:46:43.938Z,20.15
2018-09-06T19:49:12.515Z,20.13
2018-09-06T19:51:41.055Z,19.88
2018-09-06T19:54:09.338Z,19.92
2018-09-06T19:56:37.611Z,20.09
2018-09-06T19:59:06.221Z,20.21
2018-09-06T20:01:36.081Z,20.38
2018-09-06T20:04:04.712Z,20.36
2018-09-06T20:06:33.999Z,20.30
2018-09-06T20:09:02.602Z,20.27
2018-09-06T20:11:31.142Z,20.48
2018-09-06T20:13:59.507Z,20.33
2018-09-06T20:16:27.819Z,20.44
2018-09-06T20:18:56.149Z,20.35
2018-09-06T20:21:25.589Z,20.40
2018-09-06T20:23:54.042Z,20.63
2018-09-06T20:26:22.632Z,20.56
2018-09-06T20:28:51.213Z,20.49
2018-09-06T20:31:19.763Z,20.18
2018-09-06T20:33:48.366Z,19.98
2018-09-06T20:36:16.923Z,20.19
2018-09-06T20:38:45.354Z,20.49
2018-09-06T20:41:13.899Z,20.21
2018-09-06T20:43:48.947Z,19.81
2018-09-06T20:46:17.597Z,19.70
2018-09-06T20:48:46.276Z,19.93
2018-09-06T20:51:14.801Z,20.16
2018-09-06T20:53:43.117Z,20.51
2018-09-06T20:56:11.418Z,20.52
2018-09-06T20:58:39.908Z,20.28
2018-09-06T21:01:08.307Z,20.16
2018-09-06T21:03:36.716Z,19.54
2018-09-06T21:06:05.162Z,20.08
2018-09-06T21:08:33.598Z,20.08
2018-09-06T21:11:01.978Z,20.22
2018-09-06T21:13:30.459Z,20.22
2018-09-06T21:15:59.005Z,20.25
2018-09-06T21:18:27.451Z,19.96
2018-09-06T21:20:55.932Z,19.71
2018-09-06T21:23:24.475Z,19.52
2018-09-06T21:25:52.855Z,19.75
2018-09-06T21:28:21.300Z,20.11
2018-09-06T21:30:49.706Z,19.94
2018-09-06T21:33:17.983Z,19.86
2018-09-06T21:35:46.258Z,20.35
2018-09-06T21:38:14.635Z,20.21
2018-09-06T21:40:42.922Z,20.12
2018-09-06T21:43:11.195Z,19.89
2018-09-06T21:45:39.467Z,19.51
2018-09-06T21:48:07.747Z,19.67
2018-09-06T21:50:36.039Z,19.82
2018-09-06T21:53:04.474Z,20.19
2018-09-06T21:55:32.903Z,19.99
2018-09-06T21:58:01.331Z,19.73
2018-09-06T22:00:29.794Z,19.26
2018-09-06T22:03:04.177Z,19.77
2018-09-06T22:05:32.526Z,19.44
2018-09-06T22:08:00.835Z,18.88
2018-09-06T22:10:29.139Z,18.82
2018-09-06T22:12:57.405Z,19.43
2018-09-06T22:15:25.690Z,19.57
2018-09-06T22:17:53.972Z,19.48
2018-09-06T22:20:22.265Z,19.27
2018-09-06T22:22:50.559Z,19.15
2018-09-06T22:25:18.854Z,19.08
2018-09-06T22:27:47.135Z,18.93
2018-09-06T22:30:15.420Z,18.97
2018-09-06T22:32:43.691Z,19.25
2018-09-06T22:35:11.979Z,18.97
2018-09-06T22:37:40.274Z,19.47
2018-09-06T22:40:08.538Z,18.97
2018-09-06T22:42:36.814Z,19.64
2018-09-06T22:45:05.080Z,19.60
2018-09-06T22:47:33.348Z,18.99
2018-09-06T22:50:01.648Z,19.30
2018-09-06T22:52:29.934Z,18.88
2018-09-06T22:54:58.220Z,18.46
2018-09-06T22:57:26.478Z,18.68
2018-09-06T22:59:54.735Z,18.70
2018-09-06T23:02:23.007Z,18.73
2018-09-06T23:04:51.452Z,17.96
2018-09-06T23:07:19.780Z,17.97
2018-09-06T23:09:48.194Z,18.45
2018-09-06T23:12:16.786Z,18.59
2018-09-06T23:14:50.168Z,18.04
2018-09-06T23:17:18.459Z,18.21
2018-09-06T23:20:01.695Z,18.28
2018-09-06T23:22:38.844Z,18.09
2018-09-06T23:25:08.585Z,18.61
2018-09-06T23:27:36.882Z,18.56
2018-09-06T23:30:06.590Z,18.64
2018-09-06T23:32:35.082Z,18.68
2018-09-06T23:35:03.389Z,18.17
2018-09-06T23:37:31.769Z,18.61
2018-09-06T23:40:01.015Z,17.99
2018-09-06T23:42:29.290Z,17.93
2018-09-06T23:45:04.255Z,17.97
2018-09-06T23:47:34.542Z,17.59
2018-09-06T23:50:03.240Z,17.74
2018-09-06T23:52:32.579Z,17.96
2018-09-06T23:55:00.911Z,17.56
2018-09-06T23:57:42.642Z,17.88
